Hartwick Seminary, New York
Current Conditions -  °F | °C
As of 5:55 PM on Monday 24 Nov 2014 (Local Time) from KNY0 Reporting Station
Scattered Clouds Scattered Clouds  
Wind Chill: 62°   Ceiling: Unl
Heat Index: 62°   Visibility: 10mi
Dew Point: 48°   Wind: 12mph
Humidity: 62%   Direction: 200°SSW
Pressure: 29.48"   Gusts: 16mph
Location:  42.7228°N, 74.8929°W
Report Text: KNY0 242255Z AUTO 20010G14KT 10SM SCT090 17/09 A2948 RMK AO2 T01650091
Loading
Personal Weather Stations






























Interactive Weather Map New forecast layout! Learn more

10-Day Weather Forecast

Advertisements
Track Severe Weather on mobile